Time;durP1;ratioP1;P1;durP2;ratioP2;P2;SDS_P1;SDS_P2;PMS_P1;PMS_P2;Temp;Humidity;BMP_temperature;BMP_pressure;BME280_temperature;BME280_humidity;BME280_pressure;Samples;Min_cycle;Max_cycle;Signal;HPM_P1;HPM_P2
2023/10/23 00:01:42;;;;;;;6.70;4.60;;;;;;;12.35;100.00;99798.59;131600;1248;108161;-78
2023/10/23 00:04:47;;;;;;;7.30;4.40;;;;;;;12.37;100.00;99797.86;131607;1253;106855;-79
2023/10/23 00:07:53;;;;;;;6.00;4.40;;;;;;;12.37;100.00;99799.13;131534;1250;107104;-79
2023/10/23 00:10:58;;;;;;;5.70;4.30;;;;;;;12.35;100.00;99802.84;131591;1248;108750;-79
2023/10/23 00:14:04;;;;;;;4.70;4.00;;;;;;;12.31;100.00;99812.77;131627;1248;106925;-79
2023/10/23 00:17:09;;;;;;;4.90;3.70;;;;;;;12.25;100.00;99809.26;131626;1250;108611;-78
2023/10/23 00:20:15;;;;;;;5.40;4.00;;;;;;;12.20;100.00;99816.57;131629;1251;106671;-79
2023/10/23 00:23:21;;;;;;;5.20;3.90;;;;;;;12.16;100.00;99818.25;131635;1247;107305;-79
2023/10/23 00:26:27;;;;;;;6.80;3.90;;;;;;;12.09;100.00;99824.01;131585;1248;106610;-79
2023/10/23 00:29:33;;;;;;;7.30;4.30;;;;;;;12.04;100.00;99830.54;131639;1250;108581;-78
2023/10/23 00:32:38;;;;;;;14.30;4.90;;;;;;;12.01;100.00;99835.64;131624;1248;107381;-79
2023/10/23 00:35:44;;;;;;;7.00;4.70;;;;;;;11.99;100.00;99838.02;131765;1248;107554;-79
2023/10/23 00:38:50;;;;;;;7.20;4.80;;;;;;;11.92;100.00;99837.06;131716;1251;106354;-78
2023/10/23 00:41:55;;;;;;;7.80;4.90;;;;;;;11.86;100.00;99841.43;131508;1250;106839;-79
2023/10/23 00:45:01;;;;;;;5.90;4.60;;;;;;;11.79;100.00;99844.79;131628;1262;107672;-79
2023/10/23 00:48:07;;;;;;;6.70;5.10;;;;;;;11.82;100.00;99842.91;131367;1250;304363;-79
2023/10/23 00:51:15;;;;;;;7.30;5.40;;;;;;;11.85;100.00;99843.44;131615;1247;106461;-79
2023/10/23 00:54:22;;;;;;;8.30;6.30;;;;;;;11.87;100.00;99845.51;131608;1248;108559;-79
2023/10/23 00:57:27;;;;;;;9.20;6.30;;;;;;;11.85;100.00;99847.92;131552;1250;106924;-79
2023/10/23 01:00:34;;;;;;;8.50;6.00;;;;;;;11.82;100.00;99848.25;131532;1251;108468;-80
2023/10/23 01:03:39;;;;;;;9.10;6.60;;;;;;;11.81;100.00;99837.73;131465;1253;107964;-80
2023/10/23 01:06:45;;;;;;;8.70;6.60;;;;;;;11.79;100.00;99843.39;131482;1252;105977;-80
2023/10/23 01:09:51;;;;;;;9.40;7.00;;;;;;;11.79;100.00;99851.19;131360;1252;108681;-79
2023/10/23 01:12:57;;;;;;;9.10;6.90;;;;;;;11.78;100.00;99856.50;131615;1250;106733;-79
2023/10/23 01:16:02;;;;;;;8.90;6.50;;;;;;;11.79;100.00;99857.48;131683;1250;106518;-79
2023/10/23 01:19:09;;;;;;;10.80;6.90;;;;;;;11.81;100.00;99855.71;131617;1250;107842;-79
2023/10/23 01:22:14;;;;;;;8.70;6.90;;;;;;;11.83;100.00;99855.61;131672;1248;108620;-79
2023/10/23 01:25:21;;;;;;;10.10;7.60;;;;;;;11.84;100.00;99859.59;131653;1248;107758;-79
2023/10/23 01:28:27;;;;;;;11.00;7.50;;;;;;;11.85;100.00;99858.95;131608;1250;107549;-79
2023/10/23 01:31:32;;;;;;;9.80;7.00;;;;;;;11.85;100.00;99855.43;131622;1263;107518;-79
2023/10/23 01:34:38;;;;;;;8.70;7.00;;;;;;;11.84;100.00;99858.55;131653;1248;108523;-79
2023/10/23 01:37:45;;;;;;;9.90;7.40;;;;;;;11.85;100.00;99855.94;131622;1248;106477;-79
2023/10/23 01:40:50;;;;;;;9.90;7.80;;;;;;;11.86;100.00;99856.67;131575;1250;106597;-79
2023/10/23 01:43:56;;;;;;;10.60;7.90;;;;;;;11.84;100.00;99857.55;131688;1250;106671;-79
2023/10/23 01:47:02;;;;;;;9.50;7.50;;;;;;;11.80;100.00;99847.17;131682;1250;108715;-79
2023/10/23 01:50:08;;;;;;;10.20;7.40;;;;;;;11.76;100.00;99864.19;131621;1250;107789;-78
2023/10/23 01:53:14;;;;;;;10.60;7.80;;;;;;;11.77;100.00;99867.45;131528;1250;108376;-78
2023/10/23 01:56:19;;;;;;;11.20;9.00;;;;;;;11.80;100.00;99868.65;131594;1250;107521;-78
2023/10/23 01:59:25;;;;;;;11.90;8.70;;;;;;;11.82;100.00;99869.17;131411;1253;107486;-78
2023/10/23 02:02:31;;;;;;;10.00;7.60;;;;;;;11.82;100.00;99869.14;131330;1261;107689;-78
2023/10/23 02:05:36;;;;;;;11.70;8.90;;;;;;;11.86;100.00;99869.94;131537;1247;108064;-78
2023/10/23 02:08:42;;;;;;;13.20;9.60;;;;;;;11.91;100.00;99874.56;131553;1248;107370;-79
2023/10/23 02:11:48;;;;;;;12.80;10.20;;;;;;;11.94;100.00;99876.33;131609;1248;108645;-79
2023/10/23 02:14:54;;;;;;;13.00;9.80;;;;;;;11.97;100.00;99876.19;131651;1250;108818;-79
2023/10/23 02:18:00;;;;;;;12.50;9.10;;;;;;;12.00;100.00;99873.77;131798;1247;107645;-78
2023/10/23 02:21:07;;;;;;;13.30;9.90;;;;;;;12.04;100.00;99879.68;131706;1250;106890;-78
2023/10/23 02:24:16;;;;;;;13.90;11.00;;;;;;;12.08;100.00;99884.55;131788;1247;107619;-79
2023/10/23 02:27:28;;;;;;;15.70;12.20;;;;;;;12.10;100.00;99885.81;131991;1247;107334;-79
2023/10/23 02:30:36;;;;;;;15.20;11.00;;;;;;;12.11;100.00;99882.60;131806;1251;106501;-81
2023/10/23 02:33:41;;;;;;;15.80;10.60;;;;;;;12.12;100.00;99885.20;131795;1250;106560;-83
2023/10/23 02:36:47;;;;;;;16.20;11.80;;;;;;;12.14;100.00;99887.67;131649;1250;107085;-81
2023/10/23 02:39:56;;;;;;;15.90;12.50;;;;;;;12.16;100.00;99891.67;131704;1246;108498;-78
2023/10/23 02:43:03;;;;;;;17.30;11.70;;;;;;;12.18;100.00;99894.02;131810;1251;106938;-76
2023/10/23 02:46:09;;;;;;;17.50;13.20;;;;;;;12.20;100.00;99890.06;131304;1252;108669;-76
2023/10/23 02:49:15;;;;;;;26.00;17.10;;;;;;;12.24;100.00;99892.33;131720;1247;107630;-76
2023/10/23 02:52:21;;;;;;;27.00;19.00;;;;;;;12.27;100.00;99893.73;131373;1248;108407;-76
2023/10/23 02:55:28;;;;;;;26.50;18.70;;;;;;;12.30;100.00;99890.89;131450;1246;107736;-75
2023/10/23 02:58:35;;;;;;;21.90;15.60;;;;;;;12.33;100.00;99895.04;131625;1247;108534;-76
2023/10/23 03:01:41;;;;;;;22.90;15.40;;;;;;;12.33;100.00;99898.57;131473;1248;108698;-76
2023/10/23 03:04:47;;;;;;;16.10;12.50;;;;;;;12.33;100.00;99902.20;131569;1250;108388;-76
2023/10/23 03:07:52;;;;;;;16.80;13.10;;;;;;;12.35;100.00;99909.17;131572;1250;107732;-76
2023/10/23 03:10:58;;;;;;;17.50;14.00;;;;;;;12.39;100.00;99911.45;131569;1250;107633;-75
2023/10/23 03:14:03;;;;;;;16.00;12.80;;;;;;;12.42;100.00;99908.84;131549;1250;108293;-76
2023/10/23 03:17:09;;;;;;;17.20;11.80;;;;;;;12.38;100.00;99912.11;131547;1250;108496;-75
2023/10/23 03:20:15;;;;;;;14.70;11.40;;;;;;;12.34;100.00;99914.69;131510;1247;107643;-76
2023/10/23 03:23:20;;;;;;;16.20;11.50;;;;;;;12.32;100.00;99912.21;131558;1246;107626;-76
2023/10/23 03:26:27;;;;;;;20.90;16.00;;;;;;;12.34;100.00;99913.09;131590;1250;107069;-76
2023/10/23 03:29:33;;;;;;;17.20;13.00;;;;;;;12.34;100.00;99911.41;131375;1253;108713;-76
2023/10/23 03:32:39;;;;;;;18.80;13.60;;;;;;;12.34;100.00;99904.56;131574;1250;108679;-77
2023/10/23 03:35:45;;;;;;;15.50;12.40;;;;;;;12.34;100.00;99906.34;131555;1250;106857;-76
2023/10/23 03:38:51;;;;;;;15.20;12.80;;;;;;;12.36;100.00;99899.13;131553;1250;107183;-76
2023/10/23 03:41:56;;;;;;;16.60;13.50;;;;;;;12.38;100.00;99904.73;131553;1250;108569;-76
2023/10/23 03:45:02;;;;;;;16.40;12.30;;;;;;;12.36;100.00;99906.70;131576;1246;107396;-76
2023/10/23 03:48:08;;;;;;;16.00;12.20;;;;;;;12.31;100.00;99908.98;131555;1262;108538;-76
2023/10/23 03:51:14;;;;;;;18.10;13.30;;;;;;;12.30;100.00;99914.23;131531;1260;107775;-77
2023/10/23 03:54:19;;;;;;;14.90;11.60;;;;;;;12.33;100.00;99913.02;131563;1250;107319;-76
2023/10/23 03:57:25;;;;;;;16.40;11.40;;;;;;;12.35;100.00;99907.76;131648;1250;107736;-76
2023/10/23 04:00:30;;;;;;;14.20;11.70;;;;;;;12.34;100.00;99906.86;131575;1250;106210;-76
2023/10/23 04:03:36;;;;;;;17.30;11.80;;;;;;;12.26;100.00;99907.36;131627;1250;107950;-76
2023/10/23 04:06:41;;;;;;;40.00;27.70;;;;;;;12.15;100.00;99901.20;131636;1250;107244;-77
2023/10/23 04:09:47;;;;;;;95.40;62.60;;;;;;;12.05;100.00;99899.86;131506;1248;108625;-75
2023/10/23 04:12:54;;;;;;;42.50;27.30;;;;;;;11.95;100.00;99899.27;131620;1250;106607;-78
2023/10/23 04:16:02;;;;;;;26.00;18.30;;;;;;;11.87;100.00;99899.74;131595;1248;107622;-75
2023/10/23 04:19:08;;;;;;;20.70;13.80;;;;;;;11.78;100.00;99904.64;131533;1250;107766;-76
2023/10/23 04:22:13;;;;;;;14.80;11.30;;;;;;;11.67;100.00;99909.59;131496;1248;106700;-76
2023/10/23 04:25:20;;;;;;;12.00;9.30;;;;;;;11.56;100.00;99916.89;131532;1248;108463;-76
2023/10/23 04:28:26;;;;;;;13.20;10.10;;;;;;;11.45;100.00;99926.08;131607;1251;108715;-75
2023/10/23 04:31:31;;;;;;;12.30;10.00;;;;;;;11.35;100.00;99921.42;131571;1250;107739;-76
2023/10/23 04:34:37;;;;;;;12.20;9.70;;;;;;;11.26;100.00;99928.54;131666;1250;108027;-75
2023/10/23 04:37:42;;;;;;;14.40;10.10;;;;;;;11.17;100.00;99936.88;131630;1250;107135;-76
2023/10/23 04:40:50;;;;;;;14.30;9.70;;;;;;;11.09;100.00;99943.30;131502;1250;107151;-77
2023/10/23 04:43:55;;;;;;;15.40;9.60;;;;;;;10.99;100.00;99945.58;131655;1250;108481;-75
2023/10/23 04:47:01;;;;;;;13.60;9.70;;;;;;;10.91;100.00;99945.36;131696;1250;107399;-75
2023/10/23 04:50:08;;;;;;;14.10;10.20;;;;;;;10.87;100.00;99950.66;131633;1257;106989;-75
2023/10/23 04:53:13;;;;;;;18.50;13.20;;;;;;;10.85;100.00;99948.55;131611;1248;107679;-77
2023/10/23 04:56:19;;;;;;;16.30;12.30;;;;;;;10.83;100.00;99958.52;131500;1250;108274;-76
2023/10/23 04:59:25;;;;;;;14.90;11.30;;;;;;;10.78;100.00;99967.41;131966;1247;106635;-77
2023/10/23 05:02:30;;;;;;;12.80;10.10;;;;;;;10.76;100.00;99973.44;132425;1248;106900;-77
2023/10/23 05:05:36;;;;;;;19.20;11.70;;;;;;;10.78;100.00;99969.70;131585;1250;109160;-77
2023/10/23 05:08:42;;;;;;;14.90;10.70;;;;;;;10.81;100.00;99967.92;131559;1246;105870;-78
2023/10/23 05:12:06;;;;;;;14.10;10.80;;;;;;;10.87;100.00;99973.73;131569;1247;108955;-78
2023/10/23 05:15:12;;;;;;;13.50;10.50;;;;;;;10.89;100.00;99978.17;131583;1261;108467;-76
2023/10/23 05:18:17;;;;;;;12.30;9.50;;;;;;;10.87;100.00;99978.88;131565;1251;106731;-75
2023/10/23 05:21:23;;;;;;;12.20;10.30;;;;;;;10.86;100.00;99983.65;131578;1250;108628;-75
2023/10/23 05:24:28;;;;;;;14.90;11.30;;;;;;;10.84;100.00;99991.86;131609;1250;108674;-75
2023/10/23 05:27:34;;;;;;;13.80;11.20;;;;;;;10.83;100.00;99990.17;131574;1248;108669;-77
2023/10/23 05:30:40;;;;;;;14.40;11.50;;;;;;;10.82;100.00;99996.17;131638;1250;108561;-75
2023/10/23 05:33:46;;;;;;;17.70;12.10;;;;;;;10.82;100.00;100003.98;131507;1250;107687;-75
2023/10/23 05:36:51;;;;;;;13.00;9.90;;;;;;;10.83;100.00;100007.98;133032;1246;107639;-75
2023/10/23 05:39:57;;;;;;;16.00;10.60;;;;;;;10.86;100.00;100010.44;135723;1248;108949;-75
2023/10/23 05:43:02;;;;;;;16.70;10.70;;;;;;;10.91;100.00;100018.48;135728;1247;108607;-77
2023/10/23 05:46:08;;;;;;;17.40;11.00;;;;;;;10.99;100.00;100017.49;134815;1246;108484;-76
2023/10/23 05:49:13;;;;;;;13.70;10.60;;;;;;;11.07;100.00;100015.42;135696;1246;108761;-75
2023/10/23 05:52:19;;;;;;;13.70;10.40;;;;;;;11.16;100.00;100016.05;133538;1248;107949;-76
2023/10/23 05:55:25;;;;;;;15.50;11.60;;;;;;;11.26;100.00;100024.77;131508;1250;108611;-75
2023/10/23 05:58:31;;;;;;;16.00;11.50;;;;;;;11.37;100.00;100033.23;131534;1250;107950;-76
2023/10/23 06:01:37;;;;;;;15.80;11.70;;;;;;;11.48;100.00;100037.63;131490;1250;107818;-75
2023/10/23 06:04:45;;;;;;;15.80;11.80;;;;;;;11.56;100.00;100045.13;131540;1250;108588;-75
2023/10/23 06:07:51;;;;;;;15.20;11.30;;;;;;;11.63;100.00;100047.41;131453;1248;106698;-76
2023/10/23 06:10:56;;;;;;;15.50;11.00;;;;;;;11.72;100.00;100053.92;131537;1248;107666;-75
2023/10/23 06:14:03;;;;;;;15.00;11.10;;;;;;;11.80;100.00;100057.15;131538;1251;107699;-75
2023/10/23 06:17:08;;;;;;;14.00;10.80;;;;;;;11.87;100.00;100063.30;131565;1254;106803;-75
2023/10/23 06:20:14;;;;;;;14.20;11.00;;;;;;;11.94;100.00;100071.75;131576;1250;107568;-75
2023/10/23 06:23:20;;;;;;;14.80;10.50;;;;;;;11.98;100.00;100073.92;131524;1248;105622;-75
2023/10/23 06:26:28;;;;;;;29.80;21.50;;;;;;;12.05;100.00;100077.34;131534;1250;106828;-76
2023/10/23 06:29:34;;;;;;;438.00;139.90;;;;;;;12.08;100.00;100077.27;131549;1250;107677;-76
2023/10/23 06:32:39;;;;;;;455.00;132.80;;;;;;;12.11;100.00;100078.01;131545;1250;107909;-77
2023/10/23 06:35:45;;;;;;;531.40;240.60;;;;;;;12.12;100.00;100087.00;131535;1248;106598;-76
2023/10/23 06:38:51;;;;;;;58.50;34.70;;;;;;;12.13;100.00;100089.91;131550;1255;108491;-75
2023/10/23 06:41:56;;;;;;;28.90;18.30;;;;;;;12.18;100.00;100088.20;131530;1250;108506;-76
2023/10/23 06:45:03;;;;;;;21.40;16.60;;;;;;;12.26;100.00;100086.11;131580;1250;106453;-76
2023/10/23 06:48:09;;;;;;;251.40;173.50;;;;;;;12.33;100.00;100086.50;131515;1250;108477;-76
2023/10/23 06:51:14;;;;;;;54.40;40.40;;;;;;;12.38;100.00;100095.08;131536;1250;106720;-76
2023/10/23 06:54:20;;;;;;;25.20;20.50;;;;;;;12.42;100.00;100095.34;131578;1248;107643;-75
2023/10/23 06:57:26;;;;;;;22.50;16.70;;;;;;;12.48;100.00;100094.36;131569;1251;106456;-75
2023/10/23 07:00:31;;;;;;;20.60;17.00;;;;;;;12.54;100.00;100098.17;131553;1250;108549;-76
2023/10/23 07:03:37;;;;;;;21.40;17.80;;;;;;;12.57;100.00;100100.52;131587;1248;107541;-76
2023/10/23 07:06:43;;;;;;;21.30;18.50;;;;;;;12.63;100.00;100105.89;131387;1253;107841;-76
2023/10/23 07:09:49;;;;;;;24.10;18.30;;;;;;;12.67;100.00;100104.21;131530;1248;108579;-75
2023/10/23 07:12:55;;;;;;;21.70;19.30;;;;;;;12.70;100.00;100105.66;131517;1255;107815;-76
2023/10/23 07:16:05;;;;;;;24.20;21.10;;;;;;;12.75;100.00;100108.55;131541;1250;108560;-76
2023/10/23 07:19:11;;;;;;;22.10;17.70;;;;;;;12.80;100.00;100108.73;131583;1250;106708;-76
2023/10/23 07:22:17;;;;;;;15.70;13.20;;;;;;;12.81;100.00;100106.30;131500;1253;108595;-76
2023/10/23 07:25:22;;;;;;;14.60;11.20;;;;;;;12.83;100.00;100108.67;131531;1248;107084;-76
2023/10/23 07:28:28;;;;;;;287.60;140.40;;;;;;;12.86;100.00;100107.85;131578;1250;108480;-76
2023/10/23 07:31:36;;;;;;;379.30;181.90;;;;;;;12.88;100.00;100107.92;131562;1250;108588;-75
2023/10/23 07:34:42;;;;;;;348.10;186.70;;;;;;;12.91;100.00;100109.70;131251;1254;108877;-76
2023/10/23 07:37:47;;;;;;;220.60;142.60;;;;;;;12.92;100.00;100112.27;131149;1253;108671;-76
2023/10/23 07:41:11;;;;;;;184.50;113.30;;;;;;;12.97;100.00;100107.50;131217;1251;107575;-76
2023/10/23 07:44:17;;;;;;;408.50;264.20;;;;;;;13.03;100.00;100106.34;131255;1252;106974;-75
2023/10/23 07:47:40;;;;;;;861.20;562.30;;;;;;;13.15;100.00;100109.27;131240;1254;107373;-76
2023/10/23 07:50:45;;;;;;;743.40;473.70;;;;;;;13.26;100.00;100113.69;131339;1253;108529;-76
2023/10/23 07:53:51;;;;;;;1043.30;597.00;;;;;;;13.32;100.00;100109.64;131226;1253;108352;-76
2023/10/23 07:56:58;;;;;;;329.10;153.90;;;;;;;13.38;100.00;100107.59;131250;1253;106814;-76
2023/10/23 08:00:06;;;;;;;293.20;165.50;;;;;;;13.39;100.00;100107.30;131186;1254;108672;-76
2023/10/23 08:03:13;;;;;;;978.30;607.70;;;;;;;13.38;100.00;100107.55;131232;1253;108933;-77
2023/10/23 08:06:19;;;;;;;1320.70;737.70;;;;;;;13.42;100.00;100110.88;131199;1253;107680;-76
2023/10/23 08:09:24;;;;;;;906.70;521.40;;;;;;;13.50;100.00;100109.23;131119;1253;108737;-76
2023/10/23 08:12:30;;;;;;;858.60;474.70;;;;;;;13.57;100.00;100112.30;131244;1260;106290;-76
2023/10/23 08:15:38;;;;;;;1145.40;641.30;;;;;;;13.66;100.00;100107.73;131245;1253;107686;-76
2023/10/23 08:18:43;;;;;;;1184.50;660.00;;;;;;;13.74;100.00;100114.14;131206;1253;108639;-76
2023/10/23 08:21:49;;;;;;;623.10;319.00;;;;;;;13.80;100.00;100115.29;131245;1253;106206;-76
2023/10/23 08:24:54;;;;;;;524.70;295.10;;;;;;;13.87;100.00;100117.48;131274;1251;108678;-76
2023/10/23 08:28:00;;;;;;;855.00;592.70;;;;;;;13.93;100.00;100120.70;131237;1253;108589;-76
2023/10/23 08:31:05;;;;;;;442.60;284.00;;;;;;;13.99;100.00;100119.36;131273;1250;106543;-76
2023/10/23 08:34:11;;;;;;;107.00;58.90;;;;;;;14.01;100.00;100115.27;131530;1250;106679;-76
2023/10/23 08:37:17;;;;;;;37.20;21.70;;;;;;;14.00;100.00;100118.08;131574;1250;109419;-76
2023/10/23 08:40:23;;;;;;;72.70;48.90;;;;;;;13.96;100.00;100122.65;131605;1250;108351;-76
2023/10/23 08:43:28;;;;;;;21.70;16.00;;;;;;;13.97;100.00;100128.11;131669;1251;108931;-78
2023/10/23 08:46:37;;;;;;;14.60;12.10;;;;;;;13.95;100.00;100128.02;131604;1253;108674;-76
2023/10/23 08:49:42;;;;;;;10.00;5.80;;;;;;;13.94;100.00;100136.11;131572;1251;106703;-77
2023/10/23 08:53:00;;;;;;;9.90;7.50;;;;;;;13.93;100.00;100134.52;131479;1250;107671;-76
2023/10/23 08:56:07;;;;;;;7.50;5.30;;;;;;;13.99;99.57;100133.93;131589;1250;108599;-76
2023/10/23 08:59:14;;;;;;;6.50;4.90;;;;;;;13.99;99.64;100140.23;131557;1251;107200;-76
2023/10/23 09:02:20;;;;;;;10.10;8.80;;;;;;;13.96;99.70;100136.17;131549;1250;108962;-76
2023/10/23 09:05:25;;;;;;;12.40;6.70;;;;;;;13.97;100.00;100142.77;131571;1248;107624;-76
2023/10/23 09:08:33;;;;;;;6.60;4.80;;;;;;;14.04;100.00;100144.34;131557;1248;107675;-76
2023/10/23 09:11:43;;;;;;;16.40;12.80;;;;;;;14.16;100.00;100147.73;131532;1250;107550;-78
2023/10/23 09:14:49;;;;;;;13.20;8.40;;;;;;;14.33;100.00;100149.64;131633;1250;107129;-77
2023/10/23 09:17:58;;;;;;;8.70;5.50;;;;;;;14.53;100.00;100153.65;131648;1259;107857;-77
2023/10/23 09:21:03;;;;;;;6.60;4.90;;;;;;;14.61;99.74;100156.16;131561;1251;108518;-77
2023/10/23 09:24:10;;;;;;;6.50;4.30;;;;;;;14.67;99.16;100155.36;131588;1259;107699;-76
2023/10/23 09:27:16;;;;;;;5.80;4.30;;;;;;;14.70;98.40;100154.83;131508;1260;106766;-77
2023/10/23 09:30:22;;;;;;;6.30;4.20;;;;;;;14.73;98.88;100156.94;131576;1250;108579;-76
2023/10/23 09:33:31;;;;;;;8.20;4.60;;;;;;;14.82;98.20;100156.25;131554;1250;107355;-76
2023/10/23 09:36:37;;;;;;;30.70;22.60;;;;;;;14.89;98.59;100159.17;131555;1250;108620;-76
2023/10/23 09:39:45;;;;;;;9.60;6.80;;;;;;;15.01;98.15;100159.34;131450;1248;107969;-76
2023/10/23 09:42:51;;;;;;;7.70;4.50;;;;;;;15.10;99.09;100155.83;131600;1259;107684;-76
2023/10/23 09:45:58;;;;;;;5.40;3.80;;;;;;;15.21;97.11;100152.48;131651;1250;106899;-76
2023/10/23 09:49:06;;;;;;;6.10;3.50;;;;;;;15.25;98.52;100151.35;131650;1250;108309;-76
2023/10/23 09:52:14;;;;;;;4.90;3.10;;;;;;;15.41;98.66;100148.14;131580;1260;106987;-76
2023/10/23 09:55:25;;;;;;;4.70;2.90;;;;;;;15.55;97.42;100140.63;131598;1260;106722;-76
2023/10/23 09:58:35;;;;;;;5.00;3.30;;;;;;;15.61;96.63;100135.44;131574;1250;107779;-76
2023/10/23 10:01:43;;;;;;;3.20;2.50;;;;;;;15.74;97.39;100132.33;131566;1258;106642;-76
2023/10/23 10:04:58;;;;;;;4.20;2.50;;;;;;;15.91;97.35;100126.57;131518;1248;106505;-76
2023/10/23 10:08:07;;;;;;;4.40;2.80;;;;;;;16.06;97.11;100126.69;131497;1250;107537;-77
2023/10/23 10:11:13;;;;;;;4.10;2.50;;;;;;;16.17;96.97;100124.25;131552;1260;105911;-76
2023/10/23 10:14:20;;;;;;;5.80;3.20;;;;;;;16.32;97.09;100123.77;131572;1259;106359;-76
2023/10/23 10:17:27;;;;;;;3.50;2.90;;;;;;;16.43;96.54;100121.99;131550;1260;106789;-76
2023/10/23 10:20:34;;;;;;;5.00;3.30;;;;;;;16.52;96.13;100124.35;131513;1255;108610;-76
2023/10/23 10:23:40;;;;;;;4.50;3.30;;;;;;;16.44;95.06;100127.08;131642;1253;107818;-77
2023/10/23 10:26:46;;;;;;;5.40;3.10;;;;;;;16.31;93.96;100125.59;131530;1260;108299;-77
2023/10/23 10:29:52;;;;;;;5.80;3.30;;;;;;;16.21;95.51;100121.31;131702;1250;107451;-77
2023/10/23 10:33:02;;;;;;;12.00;7.80;;;;;;;16.24;95.76;100122.09;131545;1251;107780;-76
2023/10/23 10:36:11;;;;;;;5.60;4.10;;;;;;;16.29;95.75;100115.91;131615;1250;106923;-76
2023/10/23 10:39:17;;;;;;;6.60;3.70;;;;;;;16.35;95.25;100117.63;131502;1252;107408;-76
2023/10/23 10:42:25;;;;;;;5.40;3.30;;;;;;;16.33;94.32;100115.23;131547;1251;106333;-77
2023/10/23 10:45:32;;;;;;;3.70;3.10;;;;;;;16.33;94.59;100114.17;131571;1260;107583;-76
2023/10/23 10:48:45;;;;;;;3.60;2.50;;;;;;;16.35;94.58;100119.62;131511;1260;107271;-76
2023/10/23 10:51:51;;;;;;;4.50;2.70;;;;;;;16.42;94.36;100119.62;131507;1261;108487;-77
2023/10/23 10:55:00;;;;;;;4.10;2.90;;;;;;;16.49;94.22;100122.67;131566;1259;106541;-76
2023/10/23 10:58:07;;;;;;;4.50;3.30;;;;;;;16.56;94.18;100121.65;131580;1250;106771;-79
2023/10/23 11:01:13;;;;;;;4.40;2.90;;;;;;;16.53;92.77;100123.32;131580;1253;107094;-77
2023/10/23 11:04:19;;;;;;;4.00;3.00;;;;;;;16.44;92.12;100122.63;131728;1252;106737;-76
2023/10/23 11:07:26;;;;;;;4.70;3.40;;;;;;;16.34;93.03;100122.09;131631;1250;105852;-76
2023/10/23 11:10:32;;;;;;;5.00;3.00;;;;;;;16.33;92.93;100120.75;131627;1248;108341;-76
2023/10/23 11:13:38;;;;;;;6.80;3.70;;;;;;;16.31;91.78;100118.75;131597;1250;107770;-77
2023/10/23 11:16:43;;;;;;;6.90;2.90;;;;;;;16.24;92.47;100123.52;131570;1252;107729;-76
2023/10/23 11:19:49;;;;;;;3.90;2.80;;;;;;;16.23;89.28;100119.30;131463;1259;108895;-79
2023/10/23 11:22:55;;;;;;;5.70;3.30;;;;;;;16.13;89.99;100120.04;131544;1248;108513;-76
2023/10/23 11:26:01;;;;;;;3.90;3.10;;;;;;;16.22;90.52;100117.88;131475;1254;107830;-77
2023/10/23 11:29:08;;;;;;;5.70;3.20;;;;;;;16.19;89.43;100114.29;131372;1260;108542;-76
2023/10/23 11:32:15;;;;;;;3.80;3.00;;;;;;;16.17;90.96;100115.84;131608;1250;107662;-76
2023/10/23 11:35:21;;;;;;;3.80;3.20;;;;;;;16.27;91.69;100116.65;131576;1254;106682;-76
2023/10/23 11:38:27;;;;;;;5.00;2.70;;;;;;;16.36;90.81;100118.83;131560;1257;107754;-76
2023/10/23 11:41:33;;;;;;;3.30;2.50;;;;;;;16.42;91.17;100118.43;131544;1254;106026;-76
2023/10/23 11:44:40;;;;;;;4.70;2.50;;;;;;;16.50;91.09;100121.39;131547;1260;109887;-78
2023/10/23 11:47:46;;;;;;;4.60;2.20;;;;;;;16.54;90.30;100120.84;131555;1257;107209;-78
2023/10/23 11:50:57;;;;;;;5.00;2.80;;;;;;;16.65;90.49;100118.11;131496;1254;107160;-77
2023/10/23 11:54:04;;;;;;;3.80;2.60;;;;;;;16.84;90.18;100120.05;131470;1251;107543;-76
2023/10/23 11:57:10;;;;;;;4.90;2.40;;;;;;;16.88;89.28;100119.21;131640;1253;109225;-77
2023/10/23 12:00:17;;;;;;;3.70;2.80;;;;;;;16.99;89.93;100117.31;131722;1250;107746;-77
2023/10/23 12:03:23;;;;;;;3.60;2.70;;;;;;;17.10;89.68;100118.17;131576;1254;108340;-77
2023/10/23 12:06:29;;;;;;;3.80;2.80;;;;;;;17.16;88.93;100118.34;131564;1254;107901;-78
2023/10/23 12:09:35;;;;;;;4.30;2.10;;;;;;;17.22;88.78;100120.02;131552;1260;107360;-78
2023/10/23 12:12:42;;;;;;;2.60;2.00;;;;;;;17.22;88.84;100119.94;131547;1250;107845;-78
2023/10/23 12:15:48;;;;;;;3.00;2.00;;;;;;;17.25;88.29;100116.75;131510;1254;106912;-77
2023/10/23 12:18:54;;;;;;;3.30;2.20;;;;;;;17.28;88.56;100116.52;131535;1251;107724;-77
2023/10/23 12:22:00;;;;;;;2.10;1.90;;;;;;;17.32;88.06;100113.89;131564;1250;106654;-78
2023/10/23 12:25:07;;;;;;;2.80;1.80;;;;;;;17.26;86.50;100114.10;131489;1252;105927;-78
2023/10/23 12:28:13;;;;;;;2.70;1.80;;;;;;;17.20;87.54;100115.28;131607;1248;107307;-78
2023/10/23 12:31:18;;;;;;;3.00;1.90;;;;;;;17.20;87.04;100112.35;131424;1254;108448;-78
2023/10/23 12:34:24;;;;;;;5.70;2.00;;;;;;;17.21;87.19;100112.75;131569;1250;106567;-77
2023/10/23 12:37:32;;;;;;;4.00;1.50;;;;;;;17.23;87.14;100111.80;131504;1251;107916;-77
2023/10/23 12:40:38;;;;;;;4.30;1.80;;;;;;;17.23;86.98;100110.32;131745;1250;108003;-78
2023/10/23 12:43:44;;;;;;;3.20;1.70;;;;;;;17.19;87.13;100113.99;131555;1247;106627;-77
2023/10/23 12:46:49;;;;;;;2.70;1.70;;;;;;;17.12;86.74;100111.52;131280;1259;231792;-78
2023/10/23 12:49:55;;;;;;;3.10;1.90;;;;;;;17.07;87.06;100110.27;131611;1250;108716;-78
2023/10/23 12:53:01;;;;;;;3.40;1.70;;;;;;;17.13;87.11;100110.43;131539;1255;107486;-77
2023/10/23 12:56:08;;;;;;;3.10;1.80;;;;;;;17.18;86.65;100116.23;131529;1250;108455;-77
2023/10/23 12:59:13;;;;;;;3.50;2.40;;;;;;;17.22;86.51;100120.35;131588;1253;106397;-78
2023/10/23 13:02:19;;;;;;;3.70;2.10;;;;;;;17.16;85.47;100116.71;131584;1260;107466;-76
2023/10/23 13:05:25;;;;;;;4.20;2.20;;;;;;;17.05;86.32;100120.02;131573;1251;108636;-76
2023/10/23 13:08:30;;;;;;;2.60;2.00;;;;;;;16.94;86.18;100120.73;131638;1250;107293;-76
2023/10/23 13:11:36;;;;;;;4.20;2.40;;;;;;;16.85;86.35;100116.83;131559;1252;107700;-76
2023/10/23 13:14:42;;;;;;;4.10;2.30;;;;;;;16.75;86.22;100118.30;131543;1260;107594;-77
2023/10/23 13:17:48;;;;;;;4.80;2.60;;;;;;;16.64;86.26;100120.83;131571;1248;107704;-76
2023/10/23 13:20:53;;;;;;;4.20;2.10;;;;;;;16.52;86.33;100118.80;131555;1252;107776;-76
2023/10/23 13:23:59;;;;;;;4.90;2.30;;;;;;;16.43;86.32;100116.40;131538;1250;106236;-76
2023/10/23 13:27:05;;;;;;;5.10;2.30;;;;;;;16.37;86.33;100114.50;131577;1250;107620;-76
2023/10/23 13:30:12;;;;;;;3.90;2.70;;;;;;;16.33;86.52;100113.66;131542;1250;106490;-77
2023/10/23 13:33:18;;;;;;;3.20;2.50;;;;;;;16.25;86.62;100109.09;131594;1251;107920;-76
2023/10/23 13:36:23;;;;;;;5.80;2.90;;;;;;;16.17;86.76;100111.13;131654;1253;106779;-77
2023/10/23 13:39:29;;;;;;;4.30;2.70;;;;;;;16.08;87.01;100111.87;131586;1248;107431;-77
2023/10/23 13:42:35;;;;;;;2.80;2.20;;;;;;;15.98;87.14;100112.11;131704;1248;106727;-77
2023/10/23 13:45:41;;;;;;;3.30;2.20;;;;;;;15.86;87.39;100109.26;131629;1251;108614;-77
2023/10/23 13:48:46;;;;;;;4.40;2.40;;;;;;;15.77;87.54;100114.20;131477;1250;107406;-76
2023/10/23 13:51:52;;;;;;;5.90;2.80;;;;;;;15.70;87.41;100113.48;131543;1255;107722;-76